createdAt,value
2023-05-18T00:01:32.317Z,97396.06
2023-05-18T00:04:29.659Z,97401.47
2023-05-18T00:07:26.632Z,97399.41
2023-05-18T00:10:23.518Z,97398.19
2023-05-18T00:13:20.562Z,97394.97
2023-05-18T00:16:17.478Z,97400.06
2023-05-18T00:19:15.664Z,97399.69
2023-05-18T00:22:18.082Z,97393.38
2023-05-18T00:25:14.948Z,97400.41
2023-05-18T00:28:12.752Z,97396.75
2023-05-18T00:31:09.623Z,97403.28
2023-05-18T00:34:14.986Z,97399.25
2023-05-18T00:37:11.849Z,97393.34
2023-05-18T00:40:10.501Z,97398.34
2023-05-18T00:43:08.489Z,97394.63
2023-05-18T00:46:05.571Z,97397.66
2023-05-18T00:49:02.879Z,97396.16
2023-05-18T00:52:02.728Z,97410.25
2023-05-18T00:55:00.250Z,97402.06
2023-05-18T00:57:57.394Z,97402.28
2023-05-18T01:00:54.422Z,97399.63
2023-05-18T01:03:56.626Z,97392.25
2023-05-18T01:06:56.520Z,97400.69
2023-05-18T01:09:54.550Z,97400.66
2023-05-18T01:13:05.578Z,97399.97
2023-05-18T01:16:09.795Z,97399.97
2023-05-18T01:19:55.558Z,97401.34
2023-05-18T01:23:10.179Z,97393.97
2023-05-18T01:26:15.927Z,97393.38
2023-05-18T01:29:15.461Z,97399.63
2023-05-18T01:32:22.180Z,97396.34
2023-05-18T01:35:19.061Z,97401.38
2023-05-18T01:38:22.471Z,97401.81
2023-05-18T01:41:24.886Z,97401.28
2023-05-18T01:44:36.572Z,97387.69
2023-05-18T01:47:35.575Z,97395.50
2023-05-18T01:50:39.968Z,97395.19
2023-05-18T01:53:44.909Z,97395.00
2023-05-18T01:56:43.569Z,97387.44
2023-05-18T01:59:41.869Z,97391.81
2023-05-18T02:02:38.905Z,97394.38
2023-05-18T02:05:35.871Z,97395.34
2023-05-18T02:08:33.652Z,97391.44
2023-05-18T02:11:30.992Z,97396.25
2023-05-18T02:14:27.954Z,97402.72
2023-05-18T02:17:26.328Z,97399.28
2023-05-18T02:20:23.249Z,97399.63
2023-05-18T02:23:20.092Z,97403.16
2023-05-18T02:26:16.941Z,97392.81
2023-05-18T02:29:14.691Z,97396.69
2023-05-18T02:32:11.685Z,97390.88
2023-05-18T02:35:10.193Z,97388.56
2023-05-18T02:38:07.442Z,97394.63
2023-05-18T02:41:04.424Z,97393.03
2023-05-18T02:44:02.936Z,97388.53
2023-05-18T02:46:59.801Z,97396.59
2023-05-18T02:49:56.680Z,97391.91
2023-05-18T02:52:53.519Z,97389.69
2023-05-18T02:55:56.978Z,97387.91
2023-05-18T02:58:58.249Z,97399.31
2023-05-18T03:01:55.950Z,97395.00
2023-05-18T03:04:54.221Z,97393.56
2023-05-18T03:07:52.272Z,97385.63
2023-05-18T03:10:50.258Z,97384.47
2023-05-18T03:13:47.799Z,97395.91
2023-05-18T03:16:45.130Z,97386.59
2023-05-18T03:19:42.052Z,97379.97
2023-05-18T03:22:38.902Z,97385.75
2023-05-18T03:25:37.361Z,97393.13
2023-05-18T03:28:34.256Z,97385.06
2023-05-18T03:31:31.443Z,97383.19
2023-05-18T03:34:28.425Z,97397.06
2023-05-18T03:37:25.443Z,97387.38
2023-05-18T03:40:22.565Z,97395.19
2023-05-18T03:43:19.408Z,97392.09
2023-05-18T03:46:16.374Z,97399.16
2023-05-18T03:49:13.245Z,97397.56
2023-05-18T03:52:10.280Z,97397.03
2023-05-18T03:55:07.467Z,97396.69
2023-05-18T03:58:04.336Z,97400.06
2023-05-18T04:01:01.585Z,97402.69
2023-05-18T04:03:59.483Z,97403.34
2023-05-18T04:06:56.432Z,97401.19
2023-05-18T04:09:56.148Z,97406.59
2023-05-18T04:12:53.069Z,97404.53
2023-05-18T04:15:49.966Z,97394.16
2023-05-18T04:18:46.905Z,97405.69
2023-05-18T04:21:43.852Z,97410.97
2023-05-18T04:24:45.723Z,97407.84
2023-05-18T04:27:45.479Z,97414.63
2023-05-18T04:30:42.677Z,97413.97
2023-05-18T04:33:40.391Z,97412.25
2023-05-18T04:36:42.600Z,97413.47
2023-05-18T04:39:39.660Z,97412.09
2023-05-18T04:42:36.583Z,97422.19
2023-05-18T04:45:34.359Z,97413.53
2023-05-18T04:48:32.077Z,97423.97
2023-05-18T04:51:29.075Z,97424.22
2023-05-18T04:54:28.385Z,97418.94
2023-05-18T04:57:25.388Z,97417.44
2023-05-18T05:00:27.971Z,97412.78
2023-05-18T05:03:24.941Z,97411.03
2023-05-18T05:06:21.874Z,97411.09
2023-05-18T05:09:18.780Z,97417.47
2023-05-18T05:12:15.870Z,97414.53
2023-05-18T05:15:12.927Z,97409.53
2023-05-18T05:18:09.864Z,97415.19
2023-05-18T05:21:06.785Z,97411.44
2023-05-18T05:24:06.034Z,97411.75
2023-05-18T05:27:02.898Z,97405.03
2023-05-18T05:29:59.835Z,97406.16
2023-05-18T05:32:56.726Z,97405.34
2023-05-18T05:35:53.929Z,97413.06
2023-05-18T05:38:50.866Z,97418.94
2023-05-18T05:41:47.756Z,97407.25
2023-05-18T05:44:44.685Z,97419.00
2023-05-18T05:47:41.598Z,97411.25
2023-05-18T05:50:38.542Z,97414.75
2023-05-18T05:53:35.402Z,97417.69
2023-05-18T05:56:32.318Z,97417.66
2023-05-18T05:59:29.322Z,97413.38
2023-05-18T06:02:26.382Z,97417.66
2023-05-18T06:05:23.433Z,97410.72
2023-05-18T06:08:20.702Z,97413.94
2023-05-18T06:11:18.029Z,97408.31
2023-05-18T06:14:14.912Z,97410.69
2023-05-18T06:17:12.000Z,97417.91
2023-05-18T06:20:09.290Z,97420.53
2023-05-18T06:23:06.267Z,97421.09
2023-05-18T06:26:03.201Z,97421.31
2023-05-18T06:29:00.150Z,97419.31
2023-05-18T06:31:57.819Z,97427.34
2023-05-18T06:34:54.720Z,97417.97
2023-05-18T06:37:51.619Z,97424.47
2023-05-18T06:40:48.507Z,97425.28
2023-05-18T06:43:45.623Z,97415.19
2023-05-18T06:46:42.612Z,97419.69
2023-05-18T06:49:39.701Z,97417.75
2023-05-18T06:52:36.602Z,97421.75
2023-05-18T06:55:33.650Z,97420.38
2023-05-18T06:58:30.662Z,97417.25
2023-05-18T07:01:27.813Z,97409.19
2023-05-18T07:04:24.773Z,97405.34
2023-05-18T07:07:22.203Z,97407.56
2023-05-18T07:10:19.128Z,97420.88
2023-05-18T07:13:16.024Z,97405.59
2023-05-18T07:16:12.931Z,97397.66
2023-05-18T07:19:09.899Z,97398.16
2023-05-18T07:22:07.705Z,97409.16
2023-05-18T07:25:05.701Z,97405.69
2023-05-18T07:28:02.539Z,97399.38
2023-05-18T07:30:59.567Z,97395.59
2023-05-18T07:33:56.504Z,97403.88
2023-05-18T07:36:53.998Z,97403.66
2023-05-18T07:39:51.234Z,97404.78
2023-05-18T07:42:48.084Z,97395.44
2023-05-18T07:45:44.920Z,97403.19
2023-05-18T07:48:41.840Z,97408.69
2023-05-18T07:51:38.749Z,97396.50
2023-05-18T07:54:35.902Z,97401.22
2023-05-18T07:57:34.363Z,97396.94
2023-05-18T08:00:31.658Z,97398.63
2023-05-18T08:03:28.699Z,97394.81
2023-05-18T08:06:25.635Z,97394.72
2023-05-18T08:09:22.480Z,97389.97
2023-05-18T08:12:19.384Z,97396.47
2023-05-18T08:15:16.217Z,97388.31
2023-05-18T08:18:13.089Z,97390.09
2023-05-18T08:21:10.689Z,97381.53
2023-05-18T08:24:09.911Z,97374.69
2023-05-18T08:27:09.783Z,97367.91
2023-05-18T08:30:08.174Z,97361.56
2023-05-18T08:33:05.055Z,97380.00
2023-05-18T08:36:01.951Z,97370.75
2023-05-18T08:38:59.018Z,97371.50
2023-05-18T08:42:16.400Z,97367.38
2023-05-18T08:45:23.548Z,97374.06
2023-05-18T08:48:25.710Z,97366.25
2023-05-18T08:51:25.256Z,97370.72
2023-05-18T08:54:23.465Z,97369.28
2023-05-18T08:57:23.484Z,97381.84
2023-05-18T09:00:22.935Z,97373.69
2023-05-18T09:03:21.841Z,97370.22
2023-05-18T09:06:23.987Z,97374.28
2023-05-18T09:09:23.595Z,97365.31
2023-05-18T09:12:24.442Z,97363.47
2023-05-18T09:15:21.987Z,97370.16
2023-05-18T09:18:19.475Z,97377.09
2023-05-18T09:21:17.766Z,97361.50
2023-05-18T09:24:15.347Z,97371.47
2023-05-18T09:27:12.201Z,97353.78
2023-05-18T09:30:11.658Z,97349.84
2023-05-18T09:33:21.927Z,97342.63
2023-05-18T09:36:26.324Z,97341.34
2023-05-18T09:39:23.275Z,97336.59
2023-05-18T09:42:21.669Z,97338.06
2023-05-18T09:45:25.613Z,97337.94
2023-05-18T09:48:25.200Z,97344.00
2023-05-18T09:51:25.226Z,97338.09
2023-05-18T09:54:24.432Z,97344.13
2023-05-18T09:57:21.939Z,97339.81
2023-05-18T10:00:22.302Z,97335.94
2023-05-18T10:03:24.980Z,97340.81
2023-05-18T10:06:27.585Z,97323.28
2023-05-18T10:09:24.509Z,97336.94
2023-05-18T10:12:26.104Z,97346.91
2023-05-18T10:15:24.483Z,97336.22
2023-05-18T10:18:34.322Z,97328.25
2023-05-18T10:21:33.951Z,97321.88
2023-05-18T10:24:39.488Z,97323.63
2023-05-18T10:27:36.952Z,97334.59
2023-05-18T10:30:35.240Z,97332.00
2023-05-18T10:33:36.453Z,97329.25
2023-05-18T10:36:35.935Z,97328.94
2023-05-18T10:39:37.266Z,97330.78
2023-05-18T10:42:35.023Z,97322.72
2023-05-18T10:45:37.228Z,97310.78
2023-05-18T10:48:40.440Z,97320.47
2023-05-18T10:51:38.919Z,97326.50
2023-05-18T10:54:36.890Z,97328.44
2023-05-18T10:58:00.947Z,97323.00
2023-05-18T11:01:03.169Z,97327.69
2023-05-18T11:04:06.495Z,97327.00
2023-05-18T11:07:03.719Z,97329.25
2023-05-18T11:10:10.848Z,97317.69
2023-05-18T11:13:11.090Z,97314.13
2023-05-18T11:16:09.080Z,97316.56
2023-05-18T11:19:12.253Z,97313.81
2023-05-18T11:22:12.736Z,97307.22
2023-05-18T11:25:10.125Z,97295.81
2023-05-18T11:28:11.706Z,97280.78
2023-05-18T11:31:17.490Z,97299.53
2023-05-18T11:34:46.598Z,97302.03
2023-05-18T11:37:44.868Z,97309.38
2023-05-18T11:40:50.212Z,97302.28
2023-05-18T11:44:10.144Z,97283.94
2023-05-18T11:47:11.454Z,97296.28
2023-05-18T11:50:12.169Z,97290.25
2023-05-18T11:53:15.030Z,97286.38
2023-05-18T11:56:12.941Z,97295.19
2023-05-18T11:59:14.296Z,97292.47
2023-05-18T12:02:13.763Z,97290.06
2023-05-18T12:05:11.093Z,97277.41
2023-05-18T12:08:09.791Z,97273.78
2023-05-18T12:11:07.553Z,97286.09
2023-05-18T12:14:06.014Z,97285.44
2023-05-18T12:17:03.164Z,97279.72
2023-05-18T12:20:00.263Z,97291.41
2023-05-18T12:22:58.785Z,97285.28
2023-05-18T12:25:56.158Z,97280.91
2023-05-18T12:28:53.411Z,97278.72
2023-05-18T12:31:50.443Z,97266.97
2023-05-18T12:34:47.377Z,97255.53
2023-05-18T12:37:46.259Z,97252.00
2023-05-18T12:40:48.692Z,97259.59
2023-05-18T12:43:45.698Z,97240.72
2023-05-18T12:46:45.809Z,97252.91
2023-05-18T12:49:50.205Z,97243.09
2023-05-18T12:52:51.886Z,97260.59
2023-05-18T12:55:59.606Z,97248.66
2023-05-18T12:59:02.987Z,97244.13
2023-05-18T13:02:00.017Z,97237.78
2023-05-18T13:05:11.083Z,97256.41
2023-05-18T13:08:08.503Z,97243.69
2023-05-18T13:11:14.471Z,97244.41
2023-05-18T13:14:11.878Z,97246.16
2023-05-18T13:17:08.743Z,97241.38
2023-05-18T13:20:14.680Z,97244.16
2023-05-18T13:23:14.173Z,97250.06
2023-05-18T13:26:11.134Z,97248.38
2023-05-18T13:29:08.657Z,97245.75
2023-05-18T13:32:06.091Z,97251.28
2023-05-18T13:35:03.316Z,97254.25
2023-05-18T13:38:00.197Z,97258.47
2023-05-18T13:40:57.034Z,97267.63
2023-05-18T13:43:53.921Z,97264.97
2023-05-18T13:46:50.796Z,97257.41
2023-05-18T13:49:47.618Z,97246.72
2023-05-18T13:52:46.312Z,97249.28
2023-05-18T13:55:43.159Z,97251.47
2023-05-18T13:58:40.052Z,97246.00
2023-05-18T14:01:36.977Z,97240.50
2023-05-18T14:04:33.826Z,97229.97
2023-05-18T14:07:30.912Z,97229.63
2023-05-18T14:10:27.801Z,97229.88
2023-05-18T14:13:24.650Z,97233.38
2023-05-18T14:16:21.571Z,97225.75
2023-05-18T14:19:18.571Z,97224.84
2023-05-18T14:22:16.555Z,97219.97
2023-05-18T14:25:13.457Z,97235.34
2023-05-18T14:28:10.427Z,97238.38
2023-05-18T14:31:07.336Z,97237.44
2023-05-18T14:34:04.226Z,97229.09
2023-05-18T14:37:01.112Z,97239.81
2023-05-18T14:39:57.996Z,97240.84
2023-05-18T14:42:54.878Z,97245.59
2023-05-18T14:46:04.287Z,97230.19
2023-05-18T14:49:05.489Z,97219.88
2023-05-18T14:52:02.332Z,97217.25
2023-05-18T14:54:59.208Z,97217.53
2023-05-18T14:57:56.087Z,97211.31
2023-05-18T15:00:52.915Z,97213.63
2023-05-18T15:03:49.963Z,97208.25
2023-05-18T15:06:47.673Z,97203.41
2023-05-18T15:09:44.522Z,97221.13
2023-05-18T15:12:41.401Z,97235.22
2023-05-18T15:15:38.279Z,97228.66
2023-05-18T15:18:35.614Z,97219.94
2023-05-18T15:21:32.491Z,97235.81
2023-05-18T15:24:29.433Z,97230.13
2023-05-18T15:27:26.479Z,97228.81
2023-05-18T15:30:23.453Z,97234.00
2023-05-18T15:33:20.366Z,97223.22
2023-05-18T15:36:17.424Z,97217.03
2023-05-18T15:39:14.538Z,97209.25
2023-05-18T15:42:11.865Z,97208.94
2023-05-18T15:45:09.584Z,97206.31
2023-05-18T15:48:06.671Z,97198.53
2023-05-18T15:51:03.730Z,97214.41
2023-05-18T15:54:01.622Z,97205.00
2023-05-18T15:56:58.477Z,97218.47
2023-05-18T15:59:55.405Z,97209.75
2023-05-18T16:02:52.317Z,97217.75
2023-05-18T16:05:50.199Z,97220.88
2023-05-18T16:08:47.102Z,97212.44
2023-05-18T16:11:43.927Z,97209.88
2023-05-18T16:14:40.815Z,97201.69
2023-05-18T16:17:37.755Z,97219.78
2023-05-18T16:20:34.919Z,97226.09
2023-05-18T16:23:31.975Z,97210.19
2023-05-18T16:26:28.886Z,97217.94
2023-05-18T16:29:25.729Z,97218.75
2023-05-18T16:32:22.687Z,97215.47
2023-05-18T16:35:19.629Z,97220.72
2023-05-18T16:38:16.809Z,97220.75
2023-05-18T16:41:14.784Z,97219.84
2023-05-18T16:44:11.650Z,97210.28
2023-05-18T16:47:08.501Z,97215.78
2023-05-18T16:50:06.542Z,97219.03
2023-05-18T16:53:04.517Z,97208.16
2023-05-18T16:56:02.917Z,97203.91
2023-05-18T16:58:59.758Z,97218.28
2023-05-18T17:01:56.694Z,97217.75
2023-05-18T17:04:53.577Z,97212.00
2023-05-18T17:07:52.749Z,97222.59
2023-05-18T17:10:49.633Z,97206.94
2023-05-18T17:13:46.538Z,97213.66
2023-05-18T17:16:43.388Z,97221.41
2023-05-18T17:19:41.479Z,97229.84
2023-05-18T17:22:38.427Z,97230.03
2023-05-18T17:25:35.356Z,97228.69
2023-05-18T17:28:32.223Z,97239.97
2023-05-18T17:31:29.182Z,97233.53
2023-05-18T17:34:26.961Z,97241.38
2023-05-18T17:37:23.874Z,97241.22
2023-05-18T17:40:21.069Z,97241.75
2023-05-18T17:43:17.906Z,97251.44
2023-05-18T17:46:14.765Z,97242.00
2023-05-18T17:49:14.839Z,97244.44
2023-05-18T17:52:12.465Z,97247.88
2023-05-18T17:55:09.731Z,97260.09
2023-05-18T17:58:06.630Z,97262.25
2023-05-18T18:01:03.993Z,97252.47
2023-05-18T18:04:00.979Z,97250.31
2023-05-18T18:06:58.489Z,97259.56
2023-05-18T18:09:55.372Z,97257.69
2023-05-18T18:12:52.327Z,97264.88
2023-05-18T18:15:49.408Z,97258.56
2023-05-18T18:18:46.839Z,97262.25
2023-05-18T18:21:43.722Z,97260.59
2023-05-18T18:24:40.579Z,97265.25
2023-05-18T18:27:37.419Z,97264.06
2023-05-18T18:30:34.473Z,97274.78
2023-05-18T18:33:32.744Z,97264.94
2023-05-18T18:36:29.872Z,97275.13
2023-05-18T18:39:26.936Z,97274.84
2023-05-18T18:42:23.798Z,97270.63
2023-05-18T18:45:20.651Z,97275.47
2023-05-18T18:48:21.055Z,97274.63
2023-05-18T18:51:17.873Z,97279.50
2023-05-18T18:54:14.779Z,97279.19
2023-05-18T18:57:12.159Z,97283.59
2023-05-18T19:00:13.644Z,97282.94
2023-05-18T19:03:10.794Z,97294.38
2023-05-18T19:06:07.811Z,97293.69
2023-05-18T19:09:04.730Z,97294.19
2023-05-18T19:12:02.103Z,97281.34
2023-05-18T19:14:59.116Z,97292.59
2023-05-18T19:17:56.129Z,97283.72
2023-05-18T19:20:52.987Z,97289.19
2023-05-18T19:23:49.854Z,97293.09
2023-05-18T19:26:46.708Z,97293.88
2023-05-18T19:29:43.537Z,97299.34
2023-05-18T19:32:40.817Z,97307.63
2023-05-18T19:35:37.722Z,97307.59
2023-05-18T19:38:34.554Z,97308.38
2023-05-18T19:41:31.429Z,97311.66
2023-05-18T19:44:28.288Z,97308.88
2023-05-18T19:47:25.842Z,97304.31
2023-05-18T19:50:22.787Z,97308.09
2023-05-18T19:53:19.635Z,97311.72
2023-05-18T19:56:16.473Z,97313.31
2023-05-18T19:59:13.454Z,97323.50
2023-05-18T20:02:10.421Z,97312.34
2023-05-18T20:05:09.393Z,97309.41
2023-05-18T20:08:07.549Z,97315.75
2023-05-18T20:11:04.431Z,97315.75
2023-05-18T20:14:01.372Z,97316.09
2023-05-18T20:16:59.390Z,97326.31
2023-05-18T20:19:56.290Z,97312.38
2023-05-18T20:22:53.126Z,97310.88
2023-05-18T20:25:50.098Z,97315.06
2023-05-18T20:28:46.965Z,97316.63
2023-05-18T20:31:43.867Z,97313.34
2023-05-18T20:34:41.423Z,97320.81
2023-05-18T20:37:41.393Z,97317.47
2023-05-18T20:40:38.810Z,97314.81
2023-05-18T20:43:37.716Z,97310.59
2023-05-18T20:46:34.722Z,97317.22
2023-05-18T20:49:31.933Z,97319.81
2023-05-18T20:52:29.239Z,97316.28
2023-05-18T20:55:26.438Z,97319.91
2023-05-18T20:58:23.285Z,97326.66
2023-05-18T21:01:20.974Z,97321.69
2023-05-18T21:07:16.501Z,97314.88
2023-05-18T21:10:13.406Z,97322.50
2023-05-18T21:13:10.798Z,97319.66
2023-05-18T21:16:08.620Z,97322.00
2023-05-18T21:19:05.780Z,97317.72
2023-05-18T21:22:02.664Z,97316.09
2023-05-18T21:24:59.651Z,97317.16
2023-05-18T21:27:56.547Z,97313.78
2023-05-18T21:30:54.586Z,97316.09
2023-05-18T21:33:52.705Z,97315.91
2023-05-18T21:36:49.925Z,97318.78
2023-05-18T21:39:46.928Z,97312.41
2023-05-18T21:42:45.837Z,97312.38
2023-05-18T21:45:42.849Z,97317.34
2023-05-18T21:48:39.695Z,97312.03
2023-05-18T21:51:36.637Z,97314.72
2023-05-18T21:54:35.332Z,97317.69
2023-05-18T21:57:33.453Z,97313.88
2023-05-18T22:00:30.655Z,97313.00
2023-05-18T22:03:27.657Z,97311.94
2023-05-18T22:06:24.592Z,97309.88
2023-05-18T22:09:21.478Z,97314.38
2023-05-18T22:12:19.105Z,97323.16
2023-05-18T22:15:17.155Z,97322.59
2023-05-18T22:18:14.835Z,97322.75
2023-05-18T22:21:11.732Z,97314.31
2023-05-18T22:24:08.621Z,97317.91
2023-05-18T22:27:05.843Z,97325.28
2023-05-18T22:30:04.744Z,97313.94
2023-05-18T22:33:01.651Z,97304.88
2023-05-18T22:35:58.545Z,97313.63
2023-05-18T22:38:57.361Z,97307.34
2023-05-18T22:41:54.187Z,97304.94
2023-05-18T22:44:51.337Z,97304.91
2023-05-18T22:47:48.968Z,97307.28
2023-05-18T22:50:45.857Z,97303.50
2023-05-18T22:53:42.706Z,97310.41
2023-05-18T22:56:39.743Z,97301.91
2023-05-18T22:59:37.524Z,97304.09
2023-05-18T23:02:34.762Z,97302.06
2023-05-18T23:05:32.742Z,97297.50
2023-05-18T23:08:30.585Z,97302.91
2023-05-18T23:11:28.517Z,97298.28
2023-05-18T23:14:25.465Z,97297.06
2023-05-18T23:17:22.793Z,97300.81
2023-05-18T23:20:20.269Z,97299.94
2023-05-18T23:23:17.126Z,97298.59
2023-05-18T23:26:14.097Z,97307.94
2023-05-18T23:29:11.510Z,97302.06
2023-05-18T23:32:08.846Z,97300.47
2023-05-18T23:35:06.815Z,97293.19
2023-05-18T23:38:07.226Z,97297.78
2023-05-18T23:41:05.219Z,97295.28
2023-05-18T23:44:02.496Z,97297.69
2023-05-18T23:47:00.122Z,97299.38
2023-05-18T23:49:57.518Z,97304.94
2023-05-18T23:52:57.096Z,97298.88
2023-05-18T23:55:54.376Z,97299.81
2023-05-18T23:58:51.554Z,97296.22
